createdAt,value
2022-12-11T00:00:22.970Z,27.52
2022-12-11T00:02:49.944Z,29.17
2022-12-11T00:05:16.876Z,28.42
2022-12-11T00:07:43.857Z,30.55
2022-12-11T00:10:10.770Z,29.90
2022-12-11T00:12:37.700Z,29.63
2022-12-11T00:15:04.759Z,24.48
2022-12-11T00:17:31.590Z,24.98
2022-12-11T00:19:58.413Z,27.02
2022-12-11T00:22:25.218Z,27.50
2022-12-11T00:24:52.258Z,25.42
2022-12-11T00:27:19.084Z,25.40
2022-12-11T00:29:45.997Z,26.02
2022-12-11T00:32:12.868Z,26.73
2022-12-11T00:34:39.826Z,27.38
2022-12-11T00:37:06.684Z,26.02
2022-12-11T00:39:33.664Z,25.85
2022-12-11T00:42:00.500Z,25.73
2022-12-11T00:44:27.378Z,30.83
2022-12-11T00:46:54.151Z,28.73
2022-12-11T00:49:21.067Z,28.25
2022-12-11T00:51:47.879Z,30.52
2022-12-11T00:54:14.676Z,27.70
2022-12-11T00:56:41.500Z,27.48
2022-12-11T00:59:08.404Z,29.60
2022-12-11T01:01:35.341Z,29.80
2022-12-11T01:04:02.369Z,27.05
2022-12-11T01:06:29.250Z,28.27
2022-12-11T01:09:15.297Z,29.65
2022-12-11T01:11:43.218Z,28.40
2022-12-11T01:14:11.963Z,31.25
2022-12-11T01:16:38.955Z,29.25
2022-12-11T01:19:05.842Z,27.95
2022-12-11T01:21:32.677Z,30.83
2022-12-11T01:23:59.507Z,28.95
2022-12-11T01:26:26.337Z,29.95
2022-12-11T01:28:53.220Z,28.42
2022-12-11T01:31:20.885Z,28.42
2022-12-11T01:33:47.972Z,27.98
2022-12-11T01:36:20.280Z,29.75
2022-12-11T01:38:48.984Z,31.42
2022-12-11T01:41:19.966Z,28.48
2022-12-11T01:44:05.662Z,27.92
2022-12-11T01:46:34.552Z,29.98
2022-12-11T01:49:04.550Z,27.55
2022-12-11T01:51:36.805Z,27.13
2022-12-11T01:56:36.291Z,31.23
2022-12-11T01:59:07.504Z,30.73
2022-12-11T02:01:43.428Z,29.20
2022-12-11T02:04:11.385Z,24.85
2022-12-11T02:06:46.990Z,28.52
2022-12-11T02:09:22.174Z,28.55
2022-12-11T02:12:30.226Z,28.27
2022-12-11T02:15:20.521Z,29.13
2022-12-11T02:17:47.335Z,29.58
2022-12-11T02:20:21.785Z,29.08
2022-12-11T02:23:15.013Z,32.03
2022-12-11T02:25:46.918Z,26.90
2022-12-11T02:28:48.611Z,28.90
2022-12-11T02:31:45.224Z,30.88
2022-12-11T02:34:28.776Z,30.45
2022-12-11T02:37:05.904Z,30.45
2022-12-11T02:39:35.344Z,31.90
2022-12-11T02:42:03.642Z,29.13
2022-12-11T02:44:34.317Z,32.60
2022-12-11T02:47:03.141Z,29.23
2022-12-11T02:49:32.505Z,31.25
2022-12-11T02:52:02.814Z,29.25
2022-12-11T02:54:33.545Z,26.42
2022-12-11T02:57:10.173Z,31.80
2022-12-11T02:59:39.758Z,31.35
2022-12-11T03:02:07.595Z,29.10
2022-12-11T03:04:36.436Z,29.88
2022-12-11T03:07:12.402Z,29.98
2022-12-11T03:09:44.406Z,31.08
2022-12-11T03:12:15.092Z,30.83
2022-12-11T03:14:42.883Z,28.55
2022-12-11T03:17:17.722Z,33.92
2022-12-11T03:19:44.562Z,31.08
2022-12-11T03:22:31.665Z,28.08
2022-12-11T03:25:06.560Z,27.75
2022-12-11T03:27:58.576Z,27.85
2022-12-11T03:30:31.279Z,28.20
2022-12-11T03:33:04.593Z,27.88
2022-12-11T03:35:45.237Z,32.92
2022-12-11T03:38:23.862Z,28.20
2022-12-11T03:40:54.717Z,32.78
2022-12-11T03:43:22.991Z,27.02
2022-12-11T03:45:52.138Z,28.60
2022-12-11T03:48:20.597Z,31.30
2022-12-11T03:50:49.014Z,31.15
2022-12-11T03:53:17.639Z,26.92
2022-12-11T03:55:46.270Z,29.20
2022-12-11T03:58:13.067Z,28.15
2022-12-11T04:00:40.066Z,29.35
2022-12-11T04:03:13.820Z,27.25
2022-12-11T04:05:47.153Z,26.70
2022-12-11T04:08:14.978Z,25.10
2022-12-11T04:10:42.237Z,29.13
2022-12-11T04:13:10.194Z,27.75
2022-12-11T04:15:38.122Z,27.58
2022-12-11T04:18:23.992Z,25.25
2022-12-11T04:21:12.864Z,24.95
2022-12-11T04:23:58.416Z,24.42
2022-12-11T04:26:25.851Z,25.50
2022-12-11T04:28:52.697Z,25.40
2022-12-11T04:31:22.255Z,23.33
2022-12-11T04:33:49.682Z,24.42
2022-12-11T04:36:16.852Z,24.38
2022-12-11T04:38:43.758Z,21.90
2022-12-11T04:41:13.273Z,23.88
2022-12-11T04:43:40.688Z,25.75
2022-12-11T04:46:12.372Z,25.83
2022-12-11T04:48:39.728Z,24.65
2022-12-11T04:51:08.041Z,24.85
2022-12-11T04:53:35.304Z,24.00
2022-12-11T04:56:05.206Z,25.42
2022-12-11T04:58:32.058Z,20.95
2022-12-11T05:00:58.850Z,22.52
2022-12-11T05:03:25.690Z,23.05
2022-12-11T05:05:53.540Z,26.33
2022-12-11T05:08:21.341Z,25.08
2022-12-11T05:11:02.610Z,23.20
2022-12-11T05:13:30.335Z,24.25
2022-12-11T05:15:58.309Z,20.83
2022-12-11T05:18:25.420Z,22.50
2022-12-11T05:21:00.410Z,24.10
2022-12-11T05:23:28.102Z,22.15
2022-12-11T05:25:56.613Z,22.88
2022-12-11T05:28:25.220Z,24.67
2022-12-11T05:31:00.914Z,25.23
2022-12-11T05:33:28.425Z,25.40
2022-12-11T05:35:55.289Z,24.60
2022-12-11T05:38:22.754Z,21.67
2022-12-11T05:41:04.428Z,21.08
2022-12-11T05:43:33.510Z,23.17
2022-12-11T05:46:13.068Z,24.55
2022-12-11T05:48:41.093Z,21.70
2022-12-11T05:51:08.750Z,22.38
2022-12-11T05:53:37.699Z,24.45
2022-12-11T05:56:06.794Z,22.95
2022-12-11T05:58:34.502Z,24.88
2022-12-11T06:01:02.042Z,26.38
2022-12-11T06:03:28.981Z,23.52
2022-12-11T06:05:55.863Z,24.25
2022-12-11T06:08:22.886Z,22.77
2022-12-11T06:10:50.737Z,22.58
2022-12-11T06:13:18.421Z,25.70
2022-12-11T06:15:45.239Z,25.65
2022-12-11T06:18:12.124Z,23.35
2022-12-11T06:20:39.314Z,26.25
2022-12-11T06:23:06.165Z,24.30
2022-12-11T06:25:33.162Z,25.45
2022-12-11T06:28:00.096Z,23.10
2022-12-11T06:30:38.780Z,26.40
2022-12-11T06:33:07.122Z,26.95
2022-12-11T06:35:40.123Z,24.20
2022-12-11T06:38:10.644Z,20.90
2022-12-11T06:40:38.219Z,22.50
2022-12-11T06:43:05.034Z,21.65
2022-12-11T06:45:31.866Z,23.27
2022-12-11T06:47:58.925Z,23.63
2022-12-11T06:50:26.385Z,23.02
2022-12-11T06:52:53.213Z,24.73
2022-12-11T06:55:19.980Z,21.77
2022-12-11T06:57:46.766Z,21.13
2022-12-11T07:00:14.367Z,32.60
2022-12-11T07:02:41.251Z,22.73
2022-12-11T07:05:08.400Z,21.75
2022-12-11T07:07:35.281Z,23.23
2022-12-11T07:10:08.059Z,23.23
2022-12-11T07:12:35.699Z,27.27
2022-12-11T07:15:02.676Z,21.50
2022-12-11T07:17:29.990Z,21.52
2022-12-11T07:19:56.922Z,25.40
2022-12-11T07:22:24.025Z,24.98
2022-12-11T07:24:50.900Z,25.50
2022-12-11T07:27:17.680Z,25.90
2022-12-11T07:29:45.069Z,35.65
2022-12-11T07:32:11.967Z,54.15
2022-12-11T07:34:39.049Z,58.88
2022-12-11T07:37:05.876Z,97.72
2022-12-11T07:39:32.973Z,36.88
2022-12-11T07:41:59.876Z,27.08
2022-12-11T07:44:26.761Z,22.25
2022-12-11T07:46:53.550Z,24.25
2022-12-11T07:49:20.357Z,22.13
2022-12-11T07:51:47.154Z,22.17
2022-12-11T07:54:16.948Z,25.60
2022-12-11T07:56:49.782Z,22.65
2022-12-11T07:59:21.029Z,26.65
2022-12-11T08:01:47.966Z,24.33
2022-12-11T08:04:15.871Z,24.25
2022-12-11T08:06:43.749Z,27.08
2022-12-11T08:09:20.722Z,42.53
2022-12-11T08:11:51.550Z,35.10
2022-12-11T08:14:19.766Z,25.75
2022-12-11T08:16:47.464Z,27.58
2022-12-11T08:19:14.757Z,27.90
2022-12-11T08:21:41.873Z,27.48
2022-12-11T08:24:09.139Z,33.00
2022-12-11T08:26:36.075Z,28.80
2022-12-11T08:29:03.420Z,29.45
2022-12-11T08:31:30.296Z,28.08
2022-12-11T08:33:57.634Z,30.17
2022-12-11T08:36:25.152Z,30.48
2022-12-11T08:38:52.467Z,28.80
2022-12-11T08:41:28.251Z,33.22
2022-12-11T08:43:56.266Z,31.33
2022-12-11T08:46:25.484Z,30.38
2022-12-11T08:48:53.061Z,30.73
2022-12-11T08:51:23.119Z,25.90
2022-12-11T08:53:51.329Z,25.83
2022-12-11T08:56:20.798Z,24.45
2022-12-11T08:58:48.163Z,26.45
2022-12-11T09:01:18.367Z,24.42
2022-12-11T09:03:45.316Z,24.10
2022-12-11T09:06:14.719Z,19.60
2022-12-11T09:08:46.044Z,20.13
2022-12-11T09:11:25.793Z,19.75
2022-12-11T09:13:52.981Z,17.67
2022-12-11T09:16:23.163Z,17.05
2022-12-11T09:18:51.839Z,16.13
2022-12-11T09:21:21.410Z,19.00
2022-12-11T09:23:48.856Z,17.15
2022-12-11T09:26:18.263Z,19.15
2022-12-11T09:28:47.054Z,15.80
2022-12-11T09:31:20.873Z,16.55
2022-12-11T09:33:47.711Z,15.38
2022-12-11T09:36:14.579Z,13.73
2022-12-11T09:38:44.065Z,16.17
2022-12-11T09:41:16.901Z,13.57
2022-12-11T09:44:02.479Z,13.10
2022-12-11T09:46:34.388Z,12.35
2022-12-11T09:49:04.510Z,12.90
2022-12-11T09:51:39.995Z,11.75
2022-12-11T09:54:07.015Z,13.35
2022-12-11T09:56:42.460Z,13.82
2022-12-11T09:59:24.263Z,13.77
2022-12-11T10:01:55.422Z,13.23
2022-12-11T10:04:38.499Z,12.60
2022-12-11T10:07:15.836Z,13.30
2022-12-11T10:09:56.182Z,13.93
2022-12-11T10:12:57.010Z,13.82
2022-12-11T10:15:31.835Z,17.50
2022-12-11T10:18:04.937Z,14.25
2022-12-11T10:20:36.633Z,19.90
2022-12-11T10:23:06.211Z,12.43
2022-12-11T10:25:41.091Z,12.32
2022-12-11T10:28:19.753Z,11.00
2022-12-11T10:31:27.954Z,11.73
2022-12-11T10:34:08.969Z,20.15
2022-12-11T10:36:38.874Z,12.60
2022-12-11T10:39:22.500Z,10.82
2022-12-11T10:41:51.763Z,10.80
2022-12-11T10:44:28.714Z,10.48
2022-12-11T10:47:18.266Z,10.77
2022-12-11T10:49:58.456Z,9.48
2022-12-11T10:52:29.772Z,13.18
2022-12-11T10:54:59.425Z,7.95
2022-12-11T10:57:32.366Z,12.55
2022-12-11T11:00:00.676Z,12.00
2022-12-11T11:02:27.524Z,13.68
2022-12-11T11:04:57.171Z,9.98
2022-12-11T11:07:29.589Z,9.35
2022-12-11T11:10:11.690Z,10.35
2022-12-11T11:12:42.193Z,9.38
2022-12-11T11:15:17.826Z,11.68
2022-12-11T11:17:55.063Z,12.15
2022-12-11T11:20:25.633Z,11.10
2022-12-11T11:23:01.597Z,12.90
2022-12-11T11:25:31.068Z,11.18
2022-12-11T11:28:03.731Z,10.10
2022-12-11T11:30:39.480Z,11.20
2022-12-11T11:33:14.435Z,10.90
2022-12-11T11:35:58.910Z,8.40
2022-12-11T11:38:29.139Z,11.77
2022-12-11T11:41:24.111Z,9.52
2022-12-11T11:43:57.888Z,13.48
2022-12-11T11:46:27.893Z,9.77
2022-12-11T11:49:19.142Z,10.48
2022-12-11T11:51:48.243Z,10.20
2022-12-11T11:54:25.696Z,10.30
2022-12-11T11:56:56.231Z,11.20
2022-12-11T11:59:27.017Z,9.88
2022-12-11T12:01:56.670Z,11.00
2022-12-11T12:04:27.705Z,8.88
2022-12-11T12:07:09.062Z,10.52
2022-12-11T12:10:17.439Z,8.95
2022-12-11T12:13:23.920Z,9.93
2022-12-11T12:16:01.988Z,12.15
2022-12-11T12:18:31.931Z,10.60
2022-12-11T12:21:30.993Z,10.02
2022-12-11T12:24:22.416Z,12.98
2022-12-11T12:26:54.817Z,9.73
2022-12-11T12:29:29.552Z,9.27
2022-12-11T12:32:18.001Z,8.82
2022-12-11T12:34:44.811Z,10.18
2022-12-11T12:37:45.230Z,9.10
2022-12-11T12:40:30.162Z,9.82
2022-12-11T12:43:26.396Z,10.85
2022-12-11T12:46:11.635Z,8.98
2022-12-11T12:48:38.973Z,8.88
2022-12-11T12:51:06.880Z,9.63
2022-12-11T12:53:37.051Z,9.75
2022-12-11T12:56:05.583Z,9.63
2022-12-11T12:58:35.599Z,10.98
2022-12-11T13:01:08.798Z,9.60
2022-12-11T13:03:54.215Z,10.43
2022-12-11T13:06:39.839Z,10.15
2022-12-11T13:09:19.865Z,8.35
2022-12-11T13:11:53.499Z,9.68
2022-12-11T13:14:23.092Z,9.98
2022-12-11T13:16:52.160Z,8.90
2022-12-11T13:19:27.904Z,12.85
2022-12-11T13:22:19.340Z,8.13
2022-12-11T13:24:48.921Z,7.40
2022-12-11T13:27:42.805Z,10.10
2022-12-11T13:30:15.624Z,8.27
2022-12-11T13:32:49.571Z,10.32
2022-12-11T13:35:17.879Z,9.55
2022-12-11T13:37:47.377Z,9.65
2022-12-11T13:40:27.925Z,9.50
2022-12-11T13:43:20.395Z,12.00
2022-12-11T13:45:53.622Z,9.50
2022-12-11T13:48:37.854Z,12.30
2022-12-11T13:51:06.032Z,9.80
2022-12-11T13:53:33.692Z,10.68
2022-12-11T13:56:03.607Z,12.10
2022-12-11T13:58:34.645Z,11.63
2022-12-11T14:01:11.996Z,8.05
2022-12-11T14:03:51.246Z,11.40
2022-12-11T14:06:19.200Z,10.23
2022-12-11T14:08:51.792Z,10.13
2022-12-11T14:11:23.845Z,14.02
2022-12-11T14:13:50.977Z,10.93
2022-12-11T14:16:26.547Z,14.60
2022-12-11T14:18:55.619Z,17.42
2022-12-11T14:21:25.051Z,12.23
2022-12-11T14:24:01.037Z,13.45
2022-12-11T14:26:34.696Z,13.48
2022-12-11T14:29:02.864Z,13.20
2022-12-11T14:31:42.966Z,10.68
2022-12-11T14:34:22.477Z,12.05
2022-12-11T14:36:50.164Z,10.65
2022-12-11T14:39:19.833Z,10.43
2022-12-11T14:42:09.934Z,11.05
2022-12-11T14:44:47.147Z,9.32
2022-12-11T14:47:22.914Z,10.13
2022-12-11T14:49:54.045Z,10.00
2022-12-11T14:52:42.097Z,11.85
2022-12-11T14:55:22.136Z,8.98
2022-12-11T14:57:53.475Z,10.50
2022-12-11T15:00:32.870Z,6.13
2022-12-11T15:03:17.435Z,10.15
2022-12-11T15:05:55.995Z,10.45
2022-12-11T15:08:34.777Z,10.45
2022-12-11T15:11:16.682Z,13.43
2022-12-11T15:14:11.682Z,11.77
2022-12-11T15:16:41.902Z,12.07
2022-12-11T15:19:23.548Z,13.30
2022-12-11T15:21:51.380Z,11.45
2022-12-11T15:24:31.651Z,12.90
2022-12-11T15:27:01.140Z,13.05
2022-12-11T15:29:32.248Z,11.48
2022-12-11T15:32:09.583Z,11.88
2022-12-11T15:34:48.155Z,12.98
2022-12-11T15:37:30.022Z,12.98
2022-12-11T15:39:58.897Z,14.32
2022-12-11T15:42:27.456Z,18.27
2022-12-11T15:44:55.626Z,18.25
2022-12-11T15:47:25.266Z,16.30
2022-12-11T15:50:03.057Z,16.15
2022-12-11T15:52:30.074Z,12.82
2022-12-11T15:54:56.889Z,16.13
2022-12-11T15:57:24.695Z,16.20
2022-12-11T15:59:54.097Z,14.93
2022-12-11T16:02:21.124Z,14.45
2022-12-11T16:04:48.001Z,15.50
2022-12-11T16:07:26.180Z,16.20
2022-12-11T16:09:53.656Z,15.20
2022-12-11T16:12:20.479Z,14.80
2022-12-11T16:14:47.439Z,16.25
2022-12-11T16:17:15.737Z,12.02
2022-12-11T16:19:43.762Z,14.50
2022-12-11T16:22:12.227Z,14.25
2022-12-11T16:24:39.986Z,15.90
2022-12-11T16:27:09.441Z,15.32
2022-12-11T16:29:38.316Z,16.90
2022-12-11T16:32:08.245Z,12.55
2022-12-11T16:34:36.492Z,16.85
2022-12-11T16:37:04.374Z,18.63
2022-12-11T16:39:31.236Z,16.42
2022-12-11T16:41:58.026Z,14.98
2022-12-11T16:44:26.267Z,16.67
2022-12-11T16:46:53.921Z,14.95
2022-12-11T16:49:21.889Z,14.80
2022-12-11T16:51:49.621Z,16.45
2022-12-11T16:54:17.457Z,15.27
2022-12-11T16:56:44.648Z,16.30
2022-12-11T16:59:12.921Z,15.48
2022-12-11T17:01:40.690Z,17.02
2022-12-11T17:04:07.833Z,17.45
2022-12-11T17:06:34.802Z,15.07
2022-12-11T17:09:02.018Z,17.08
2022-12-11T17:11:29.058Z,16.67
2022-12-11T17:13:58.084Z,19.48
2022-12-11T17:16:26.161Z,17.67
2022-12-11T17:18:53.370Z,17.58
2022-12-11T17:21:22.331Z,17.73
2022-12-11T17:23:50.515Z,15.80
2022-12-11T17:26:19.171Z,16.90
2022-12-11T17:28:46.290Z,16.17
2022-12-11T17:31:16.185Z,15.43
2022-12-11T17:33:44.166Z,15.82
2022-12-11T17:36:14.686Z,16.15
2022-12-11T17:38:41.702Z,18.55
2022-12-11T17:41:14.253Z,16.65
2022-12-11T17:43:45.238Z,17.00
2022-12-11T17:46:12.890Z,15.52
2022-12-11T17:48:40.587Z,15.80
2022-12-11T17:51:09.656Z,16.00
2022-12-11T17:53:36.831Z,16.77
2022-12-11T17:56:07.644Z,16.02
2022-12-11T17:58:34.780Z,14.18
2022-12-11T18:01:07.226Z,15.40
2022-12-11T18:03:34.071Z,16.77
2022-12-11T18:06:06.470Z,16.90
2022-12-11T18:11:13.128Z,14.82
2022-12-11T18:13:40.060Z,17.95
2022-12-11T18:16:10.353Z,15.15
2022-12-11T18:18:37.605Z,16.50
2022-12-11T18:21:04.967Z,15.77
2022-12-11T18:23:31.829Z,15.32
2022-12-11T18:25:58.659Z,17.10
2022-12-11T18:28:25.512Z,18.88
2022-12-11T18:30:52.559Z,16.13
2022-12-11T18:33:19.394Z,17.48
2022-12-11T18:35:48.964Z,16.08
2022-12-11T18:38:15.848Z,14.55
2022-12-11T18:40:42.761Z,14.80
2022-12-11T18:43:09.795Z,15.27
2022-12-11T18:45:40.897Z,16.30
2022-12-11T18:48:08.602Z,15.23
2022-12-11T18:50:35.582Z,16.75
2022-12-11T18:53:02.381Z,15.77
2022-12-11T18:55:29.382Z,17.25
2022-12-11T18:57:56.170Z,17.98
2022-12-11T19:00:23.261Z,17.15
2022-12-11T19:02:51.833Z,17.35
2022-12-11T19:05:18.796Z,16.67
2022-12-11T19:07:45.752Z,18.33
2022-12-11T19:10:12.722Z,18.20
2022-12-11T19:12:39.569Z,21.80
2022-12-11T19:15:06.887Z,19.17
2022-12-11T19:17:33.653Z,17.90
2022-12-11T19:20:18.818Z,20.63
2022-12-11T19:22:47.319Z,21.67
2022-12-11T19:25:14.324Z,21.60
2022-12-11T19:27:41.373Z,23.65
2022-12-11T19:30:08.840Z,18.50
2022-12-11T19:32:36.453Z,18.63
2022-12-11T19:35:03.913Z,20.38
2022-12-11T19:37:30.796Z,22.88
2022-12-11T19:39:57.594Z,21.50
2022-12-11T19:42:24.386Z,23.95
2022-12-11T19:44:51.258Z,21.75
2022-12-11T19:47:18.075Z,19.52
2022-12-11T19:49:44.887Z,22.02
2022-12-11T19:52:11.686Z,18.33
2022-12-11T19:54:38.492Z,20.73
2022-12-11T19:57:05.337Z,20.85
2022-12-11T19:59:32.189Z,18.55
2022-12-11T20:01:59.062Z,20.95
2022-12-11T20:04:26.039Z,19.75
2022-12-11T20:06:52.881Z,20.00
2022-12-11T20:09:19.964Z,17.83
2022-12-11T20:11:47.817Z,17.27
2022-12-11T20:14:24.116Z,21.55
2022-12-11T20:17:10.177Z,18.80
2022-12-11T20:19:38.142Z,21.55
2022-12-11T20:22:05.526Z,20.75
2022-12-11T20:24:32.366Z,23.15
2022-12-11T20:26:59.170Z,19.15
2022-12-11T20:29:25.964Z,20.15
2022-12-11T20:31:52.873Z,20.75
2022-12-11T20:34:20.226Z,20.67
2022-12-11T20:36:52.333Z,20.23
2022-12-11T20:39:19.667Z,19.67
2022-12-11T20:41:46.490Z,18.75
2022-12-11T20:44:13.362Z,19.65
2022-12-11T20:46:40.268Z,20.35
2022-12-11T20:49:12.817Z,19.75
2022-12-11T20:51:40.656Z,22.40
2022-12-11T20:54:07.787Z,21.23
2022-12-11T20:56:34.709Z,22.73
2022-12-11T20:59:01.549Z,25.27
2022-12-11T21:01:31.959Z,19.35
2022-12-11T21:03:59.756Z,20.13
2022-12-11T21:06:35.754Z,22.88
2022-12-11T21:09:09.369Z,24.23
2022-12-11T21:11:36.188Z,21.25
2022-12-11T21:14:03.542Z,22.98
2022-12-11T21:16:30.723Z,27.40
2022-12-11T21:18:58.805Z,29.30
2022-12-11T21:21:26.405Z,22.80
2022-12-11T21:23:53.241Z,25.35
2022-12-11T21:26:21.010Z,23.83
2022-12-11T21:28:47.880Z,20.75
2022-12-11T21:31:17.280Z,25.63
2022-12-11T21:33:44.325Z,23.15
2022-12-11T21:36:13.272Z,21.02
2022-12-11T21:38:41.717Z,19.60
2022-12-11T21:41:14.382Z,22.33
2022-12-11T21:44:14.286Z,21.00
2022-12-11T21:46:29.629Z,20.27
2022-12-11T21:48:56.426Z,17.33
2022-12-11T21:51:32.401Z,17.92
2022-12-11T21:54:03.613Z,20.63
2022-12-11T21:56:31.785Z,20.88
2022-12-11T21:58:58.603Z,16.30
2022-12-11T22:01:38.708Z,18.15
2022-12-11T22:04:06.114Z,22.58
2022-12-11T22:06:33.667Z,22.38
2022-12-11T22:09:00.790Z,19.67
2022-12-11T22:11:30.322Z,20.20
2022-12-11T22:13:57.417Z,21.77
2022-12-11T22:16:24.780Z,21.38
2022-12-11T22:18:51.629Z,23.55
2022-12-11T22:21:18.612Z,21.90
2022-12-11T22:23:45.561Z,20.60
2022-12-11T22:26:18.596Z,23.15
2022-12-11T22:28:45.423Z,20.00
2022-12-11T22:31:14.394Z,21.65
2022-12-11T22:33:41.346Z,22.48
2022-12-11T22:36:08.579Z,21.83
2022-12-11T22:38:35.457Z,24.50
2022-12-11T22:41:09.069Z,21.17
2022-12-11T22:43:35.905Z,23.77
2022-12-11T22:46:02.894Z,21.52
2022-12-11T22:48:29.726Z,23.95
2022-12-11T22:50:56.547Z,22.08
2022-12-11T22:53:23.333Z,24.77
2022-12-11T22:55:50.134Z,23.95
2022-12-11T22:58:21.623Z,28.13
2022-12-11T23:00:49.120Z,24.48
2022-12-11T23:03:16.624Z,25.05
2022-12-11T23:05:43.660Z,21.92
2022-12-11T23:08:10.625Z,23.15
2022-12-11T23:10:40.661Z,27.02
2022-12-11T23:13:07.798Z,22.50
2022-12-11T23:15:35.052Z,21.80
2022-12-11T23:18:02.315Z,23.77
2022-12-11T23:20:29.456Z,19.52
2022-12-11T23:22:56.392Z,21.55
2022-12-11T23:25:23.288Z,22.35
2022-12-11T23:27:50.126Z,20.65
2022-12-11T23:30:17.027Z,23.40
2022-12-11T23:32:43.926Z,23.15
2022-12-11T23:35:11.112Z,20.70
2022-12-11T23:37:38.181Z,23.23
2022-12-11T23:40:05.679Z,21.63
2022-12-11T23:42:33.766Z,22.40
2022-12-11T23:45:00.643Z,23.02
2022-12-11T23:47:27.483Z,21.58
2022-12-11T23:49:54.330Z,21.60
2022-12-11T23:52:22.643Z,21.33
2022-12-11T23:54:49.501Z,21.27
2022-12-11T23:57:16.356Z,21.30
2022-12-11T23:59:43.312Z,22.38
